This is the latest recevied weather packets stored in our database for station/object AJ7DN. If no packets are shown the sender has not sent any weather packets the latest 10 day(s).
| Time | Temp. | Humidity | Pressure | Rain* | Wind** | Luminosity | Snow |
|---|---|---|---|---|---|---|---|
| 1777768259 | 20.56° C | 66% | 1016 hPa | 0 mm | - | 157 W/m² | - |
| 1777767956 | 20.56° C | 67% | 1016 hPa | 0 mm | - | 164 W/m² | - |
| 1777767653 | 20° C | 69% | 1016.1 hPa | 0 mm | - | 155 W/m² | - |
| 1777767349 | 20.56° C | 67% | 1015.9 hPa | 0 mm | - | 140 W/m² | - |
| 1777767047 | 20.56° C | 67% | 1016 hPa | 0 mm | - | 130 W/m² | - |
| 1777766744 | 20.56° C | 66% | 1015.9 hPa | 0 mm | - | 119 W/m² | - |
| 1777766441 | 20.56° C | 65% | 1016.1 hPa | 0 mm | - | 115 W/m² | - |
| 1777766137 | 21.11° C | 62% | 1016.2 hPa | 0 mm | - | 121 W/m² | - |
| 1777765836 | 21.11° C | 62% | 1015.9 hPa | 0 mm | - | 156 W/m² | - |
| 1777765531 | 21.67° C | 61% | 1016 hPa | 0 mm | - | 151 W/m² | - |
| 1777765229 | 21.11° C | 61% | 1016.1 hPa | 0 mm | - | 220 W/m² | - |
| 1777764929 | 21.11° C | 62% | 1016.1 hPa | 0 mm | - | 215 W/m² | - |
| 1777764627 | 21.11° C | 62% | 1016.4 hPa | 0 mm | - | 184 W/m² | - |
| 1777764323 | 21.67° C | 60% | 1016.3 hPa | 0 mm | - | 188 W/m² | - |
| 1777764020 | 21.67° C | 61% | 1016.4 hPa | 0 mm | - | 256 W/m² | - |
| 1777763717 | 21.67° C | 59% | 1016.6 hPa | 0 mm | - | 268 W/m² | - |
| 1777763415 | 21.11° C | 60% | 1016.6 hPa | 0 mm | - | 290 W/m² | - |
| 1777763113 | 21.11° C | 61% | 1016.6 hPa | 0 mm | - | 263 W/m² | - |
| 1777762811 | 21.11° C | 61% | 1016.9 hPa | 0 mm | - | 362 W/m² | - |
| 1777762511 | 21.11° C | 62% | 1017 hPa | 0 mm | - | 364 W/m² | - |
| 1777762209 | 20.56° C | 61% | 1016.9 hPa | 0 mm | - | 211 W/m² | - |
| 1777761905 | 20.56° C | 62% | 1016.8 hPa | 0 mm | - | 278 W/m² | - |
| 1777761602 | 21.11° C | 61% | 1017 hPa | 0 mm | - | 308 W/m² | - |
| 1777761300 | 21.11° C | 61% | 1017 hPa | 0 mm | - | 325 W/m² | - |
| 1777760998 | 21.11° C | 61% | 1017.2 hPa | 0 mm | - | 357 W/m² | - |
* Rain latest hour (hover to see other rain measurements)
** Current wind speed in m/s (hover to see current wind gust speed)